Time;durP1;ratioP1;P1;durP2;ratioP2;P2;SDS_P1;SDS_P2;PMS_P1;PMS_P2;Temp;Humidity;BMP_temperature;BMP_pressure;BME280_temperature;BME280_humidity;BME280_pressure;Samples;Min_cycle;Max_cycle;Signal;HPM_P1;HPM_P2
2022/04/04 00:02:34;;;;;;;;;;;8.10;36.30;;;6.25;38.58;101100.84;8248596;28;20008;-83
2022/04/04 00:06:57;;;;;;;;;;;8.10;36.30;;;6.33;38.96;101130.84;8242087;28;19997;-82
2022/04/04 00:11:19;;;;;;;;;;;8.00;36.30;;;6.26;38.95;101128.47;8228536;28;20387;-83
2022/04/04 00:15:41;;;;;;;;;;;8.00;36.20;;;6.10;38.82;101113.41;8243416;28;20429;-82
2022/04/04 00:20:04;;;;;;;;;;;7.90;36.20;;;6.11;38.74;101116.84;8239446;28;20446;-82
2022/04/04 00:24:27;;;;;;;;;;;7.90;36.20;;;6.01;38.82;101113.66;8241988;28;20036;-82
2022/04/04 00:28:49;;;;;;;;;;;7.80;36.30;;;5.88;39.23;101102.78;8256781;28;19993;-82
2022/04/04 00:33:11;;;;;;;;;;;7.70;36.20;;;5.73;38.79;101074.75;8242824;28;20144;-82
2022/04/04 00:37:34;;;;;;;;;;;7.60;36.30;;;5.83;38.95;101108.97;8253296;28;20325;-82
2022/04/04 00:41:56;;;;;;;;;;;7.60;36.30;;;5.73;39.27;101090.28;8251986;28;20012;-81
2022/04/04 00:46:18;;;;;;;;;;;7.50;36.30;;;5.79;39.28;101107.41;8228836;28;19925;-82
2022/04/04 00:50:40;;;;;;;;;;;7.60;36.40;;;5.69;38.71;101092.09;8244279;28;19925;-82
2022/04/04 00:55:02;;;;;;;;;;;7.50;36.50;;;5.64;38.94;101099.16;8239966;28;20447;-81
2022/04/04 00:59:24;;;;;;;;;;;7.40;36.50;;;5.58;38.86;101088.97;8247584;28;19918;-82
2022/04/04 01:03:46;;;;;;;;;;;7.40;36.50;;;5.51;38.89;101085.72;8252947;28;19924;-81
2022/04/04 01:08:07;;;;;;;;;;;7.30;36.50;;;5.44;39.33;101075.56;8261077;28;19936;-81
2022/04/04 01:12:29;;;;;;;;;;;7.30;36.60;;;5.32;39.06;101069.84;8269684;28;20017;-82
2022/04/04 01:16:50;;;;;;;;;;;7.30;36.60;;;5.49;38.78;101091.84;8273268;28;19918;-81
2022/04/04 01:21:12;;;;;;;;;;;7.30;38.00;;;5.35;39.32;101073.22;8262261;28;20016;-81
2022/04/04 01:25:37;;;;;;;;;;;7.20;36.90;;;5.30;39.24;101066.44;8259946;28;20004;-82
2022/04/04 01:29:59;;;;;;;;;;;7.10;36.70;;;5.31;39.53;101070.72;8259919;28;19945;-81
2022/04/04 01:34:22;;;;;;;;;;;7.10;36.80;;;5.21;39.35;101053.78;8253841;28;20012;-81
2022/04/04 01:38:43;;;;;;;;;;;7.00;36.80;;;5.29;39.04;101072.53;8234073;28;20028;-81
2022/04/04 01:43:05;;;;;;;;;;;7.10;36.70;;;5.08;39.32;101047.22;8270020;28;19924;-81
2022/04/04 01:47:27;;;;;;;;;;;7.00;36.70;;;5.22;39.56;101064.97;8257982;28;20005;-81
2022/04/04 01:51:49;;;;;;;;;;;7.00;36.70;;;5.10;39.42;101051.47;8272994;28;20029;-82
2022/04/04 01:56:11;;;;;;;;;;;6.90;36.90;;;5.06;39.54;101038.66;8265143;28;20643;-82
2022/04/04 02:00:33;;;;;;;;;;;6.90;36.90;;;5.17;39.66;101064.25;8220547;28;20005;-82
2022/04/04 02:04:55;;;;;;;;;;;6.90;36.90;;;5.04;39.22;101030.91;8272998;28;20000;-82
2022/04/04 02:09:17;;;;;;;;;;;6.80;36.90;;;4.76;39.40;100993.75;8220396;28;19922;-82
2022/04/04 02:13:40;;;;;;;;;;;6.70;37.00;;;5.09;39.36;101047.16;8232464;28;20462;-82
2022/04/04 02:18:01;;;;;;;;;;;6.80;37.00;;;4.98;39.52;101025.91;8252136;28;20016;-81
2022/04/04 02:22:23;;;;;;;;;;;6.80;36.90;;;4.98;39.69;101030.25;8253261;28;20439;-82
2022/04/04 02:26:45;;;;;;;;;;;6.80;36.90;;;4.81;39.71;100997.91;8284173;28;20008;-82
2022/04/04 02:31:07;;;;;;;;;;;6.80;36.90;;;4.93;39.38;101014.00;8254139;28;19930;-81
2022/04/04 02:35:29;;;;;;;;;;;6.70;36.80;;;4.94;39.81;101013.09;8248822;28;20033;-82
2022/04/04 02:39:51;;;;;;;;;;;6.60;36.80;;;4.91;39.47;101008.84;8276096;28;20012;-82
2022/04/04 02:44:12;;;;;;;;;;;6.60;36.90;;;4.90;39.52;101001.97;8282665;28;20005;-82
2022/04/04 02:48:35;;;;;;;;;;;6.60;36.90;;;4.77;39.80;100975.59;8240872;28;19932;-82
2022/04/04 02:52:57;;;;;;;;;;;6.60;37.00;;;4.82;39.63;100975.47;8263817;28;20009;-82
2022/04/04 02:57:19;;;;;;;;;;;6.70;37.10;;;4.89;39.67;100984.78;8271500;28;19918;-91
2022/04/04 03:01:48;;;;;;;;;;;6.60;37.00;;;4.76;39.79;100968.72;8232838;28;19924;-80
2022/04/04 03:06:10;;;;;;;;;;;6.60;36.90;;;4.73;39.84;100963.66;8250776;28;19917;-82
2022/04/04 03:10:32;;;;;;;;;;;6.60;37.20;;;4.77;39.53;100959.22;8266017;28;19926;-82
2022/04/04 03:14:55;;;;;;;;;;;6.60;37.10;;;4.82;39.75;100975.47;8271829;28;19918;-82
2022/04/04 03:19:16;;;;;;;;;;;6.50;37.00;;;4.57;39.92;100933.91;8258713;28;20360;-82
2022/04/04 03:23:39;;;;;;;;;;;6.60;37.10;;;4.70;40.05;100960.28;8240808;28;19932;-82
2022/04/04 03:28:01;;;;;;;;;;;6.60;37.20;;;4.57;39.93;100952.88;8249807;28;20010;-82
2022/04/04 03:32:23;;;;;;;;;;;6.60;37.20;;;4.54;39.94;100940.00;8245405;28;19918;-81
2022/04/04 03:36:46;;;;;;;;;;;6.50;37.30;;;4.54;39.83;100937.44;8264507;28;19918;-81
2022/04/04 03:41:09;;;;;;;;;;;6.50;37.30;;;4.61;40.05;100953.63;8240869;28;20348;-81
2022/04/04 03:45:31;;;;;;;;;;;6.40;37.10;;;4.52;39.90;100931.44;8239051;28;19917;-81
2022/04/04 03:49:53;;;;;;;;;;;6.50;37.20;;;4.47;40.20;100928.13;8234147;28;19991;-82
2022/04/04 03:54:15;;;;;;;;;;;6.40;37.30;;;4.46;39.91;100916.09;8216181;28;19919;-82
2022/04/04 03:58:36;;;;;;;;;;;6.40;37.20;;;4.54;40.18;100937.44;8226889;28;19928;-81
2022/04/04 04:02:58;;;;;;;;;;;6.30;37.10;;;4.50;40.00;100927.19;8217359;28;19924;-81
2022/04/04 04:07:24;;;;;;;;;;;6.30;37.90;;;3.97;40.08;100843.28;8201481;28;20022;-81
2022/04/04 04:11:46;;;;;;;;;;;6.20;37.40;;;4.41;40.05;100905.88;8207801;28;19925;-81
2022/04/04 04:16:09;;;;;;;;;;;6.30;37.30;;;4.42;39.93;100906.72;8201485;28;20289;-81
2022/04/04 04:20:32;;;;;;;;;;;6.20;37.40;;;4.05;40.19;100850.84;8209581;28;19924;-81
2022/04/04 04:24:54;;;;;;;;;;;6.20;37.30;;;4.37;40.07;100906.81;8204287;28;19925;-81
2022/04/04 04:29:16;;;;;;;;;;;6.20;37.30;;;4.41;39.97;100905.88;8201306;28;20269;-81
2022/04/04 04:33:38;;;;;;;;;;;6.30;37.50;;;4.30;39.99;100887.22;8202189;28;20377;-81
2022/04/04 04:38:00;;;;;;;;;;;6.20;37.60;;;4.33;40.27;100891.47;8212911;28;20010;-81
2022/04/04 04:42:22;;;;;;;;;;;6.20;37.50;;;4.37;40.34;100895.66;8219399;28;20025;-81
2022/04/04 04:46:44;;;;;;;;;;;6.20;37.70;;;4.23;40.31;100880.50;8227502;28;19939;-82
2022/04/04 04:51:07;;;;;;;;;;;6.20;38.30;;;4.21;40.24;100875.41;8212340;28;19927;-81
2022/04/04 04:55:30;;;;;;;;;;;6.10;37.60;;;4.27;40.16;100889.91;8212981;28;19926;-81
2022/04/04 04:59:52;;;;;;;;;;;6.10;37.60;;;4.11;40.20;100855.84;8225498;28;19925;-81
2022/04/04 05:04:14;;;;;;;;;;;6.10;37.60;;;4.17;40.29;100860.00;8218679;28;19918;-80
2022/04/04 05:08:36;;;;;;;;;;;6.00;37.40;;;4.21;40.58;100869.34;8247732;28;20045;-81
2022/04/04 05:12:58;;;;;;;;;;;6.10;37.40;;;4.12;40.45;100852.38;8260498;28;19918;-81
2022/04/04 05:17:19;;;;;;;;;;;5.90;37.50;;;4.19;40.47;100864.25;8259012;28;20013;-81
2022/04/04 05:21:41;;;;;;;;;;;6.00;38.00;;;4.17;40.54;100853.09;8268409;28;20024;-81
2022/04/04 05:26:04;;;;;;;;;;;6.10;38.00;;;3.74;40.70;100778.47;8256501;28;20021;-80
2022/04/04 05:30:25;;;;;;;;;;;6.10;38.10;;;4.19;40.59;100853.91;8255784;28;19922;-80
2022/04/04 05:34:47;;;;;;;;;;;6.20;38.30;;;4.14;40.74;100837.66;8254560;28;20016;-81
2022/04/04 05:39:09;;;;;;;;;;;6.10;38.00;;;4.18;40.60;100839.28;8267533;28;20024;-81
2022/04/04 05:43:31;;;;;;;;;;;6.10;38.10;;;4.21;40.70;100840.94;8255287;28;20004;-80
2022/04/04 05:47:53;;;;;;;;;;;6.10;38.00;;;4.07;40.46;100805.13;8266501;28;19924;-80
2022/04/04 05:52:16;;;;;;;;;;;6.10;38.20;;;4.28;40.63;100834.72;8256403;28;19922;-82
2022/04/04 05:56:38;;;;;;;;;;;6.20;37.90;;;4.30;40.63;100827.78;8269896;28;20012;-80
2022/04/04 06:00:59;;;;;;;;;;;6.20;38.30;;;4.35;40.66;100828.50;8243605;28;19928;-80
2022/04/04 06:05:21;;;;;;;;;;;6.10;37.90;;;4.41;40.89;100828.31;8248378;28;20017;-80
2022/04/04 06:09:43;;;;;;;;;;;6.30;38.10;;;4.51;41.00;100838.38;8250702;28;20634;-81
2022/04/04 06:14:05;;;;;;;;;;;6.30;38.10;;;4.46;40.94;100809.25;8250286;28;20005;-83
2022/04/04 06:18:27;;;;;;;;;;;6.60;38.20;;;4.58;40.94;100812.31;8284994;28;20032;-79
2022/04/04 06:22:49;;;;;;;;;;;6.40;38.30;;;4.63;40.75;100807.00;8248283;28;20008;-83
2022/04/04 06:27:11;;;;;;;;;;;6.50;38.60;;;4.63;40.77;100797.50;8264989;28;19928;-81
2022/04/04 06:31:34;;;;;;;;;;;6.60;38.40;;;4.65;41.02;100776.78;8258860;28;20003;-81
2022/04/04 06:35:56;;;;;;;;;;;6.60;38.20;;;4.88;40.82;100791.59;8268434;28;20012;-82
2022/04/04 06:40:18;;;;;;;;;;;6.80;38.70;;;4.95;41.00;100768.97;8240096;28;20336;-82
2022/04/04 06:44:40;;;;;;;;;;;6.70;39.30;;;4.88;40.67;100740.69;8235290;28;20017;-81
2022/04/04 06:49:03;;;;;;;;;;;6.90;38.90;;;5.23;40.79;100766.34;8231732;28;19925;-82
2022/04/04 06:53:25;;;;;;;;;;;7.10;39.00;;;5.31;40.89;100749.66;8219604;28;20399;-82
2022/04/04 06:57:46;;;;;;;;;;;7.20;38.70;;;5.50;41.05;100749.06;8254689;28;20022;-80
2022/04/04 07:02:09;;;;;;;;;;;7.30;39.10;;;5.65;41.23;100740.78;8275000;28;20487;-82
2022/04/04 07:06:30;;;;;;;;;;;7.50;38.70;;;5.74;41.35;100727.47;8256096;28;20012;-84
2022/04/04 07:10:52;;;;;;;;;;;7.60;39.10;;;6.01;41.14;100742.16;8266571;28;19922;-81
2022/04/04 07:15:14;;;;;;;;;;;7.90;38.90;;;6.07;41.08;100723.78;8230535;28;20024;-81
2022/04/04 07:19:36;;;;;;;;;;;7.80;38.40;;;6.18;41.01;100706.06;8217963;28;19917;-81
2022/04/04 07:23:57;;;;;;;;;;;7.90;38.40;;;6.18;40.95;100691.38;8236122;28;20496;-81
2022/04/04 07:28:21;;;;;;;;;;;8.20;38.40;;;6.24;41.39;100679.06;8274794;28;20008;-84
2022/04/04 07:32:43;;;;;;;;;;;8.30;39.00;;;6.57;41.30;100703.72;8272444;28;20342;-83
2022/04/04 07:37:05;;;;;;;;;;;8.40;39.10;;;6.62;41.25;100696.59;8268583;28;19918;-82
2022/04/04 07:41:27;;;;;;;;;;;8.50;38.60;;;6.62;40.88;100668.06;8265211;28;20660;-86
2022/04/04 07:45:48;;;;;;;;;;;8.60;39.00;;;6.82;41.13;100675.03;8260284;28;20012;-87
2022/04/04 07:50:11;;;;;;;;;;;8.70;39.00;;;6.91;40.90;100671.22;8260140;28;19925;-85
2022/04/04 07:54:33;;;;;;;;;;;8.80;39.20;;;6.99;41.22;100650.13;8251105;28;19921;-85
2022/04/04 07:58:55;;;;;;;;;;;8.70;38.80;;;7.05;40.91;100637.75;8235597;28;19928;-86
2022/04/04 08:03:17;;;;;;;;;;;9.00;38.50;;;7.15;41.24;100637.34;8253456;28;20008;-85
2022/04/04 08:07:40;;;;;;;;;;;9.10;39.50;;;7.20;41.03;100640.59;8234126;28;20332;-85
2022/04/04 08:12:02;;;;;;;;;;;9.10;38.90;;;7.34;41.38;100622.66;8276054;28;19932;-83
2022/04/04 08:16:26;;;;;;;;;;;9.30;39.00;;;7.52;41.07;100629.66;8231956;28;20013;-79
2022/04/04 08:20:50;;;;;;;;;;;9.20;38.70;;;7.51;40.96;100593.38;8249382;28;21526;-78
2022/04/04 08:25:13;;;;;;;;;;;9.40;38.50;;;7.77;40.99;100605.16;8238508;28;19921;-80
2022/04/04 08:29:35;;;;;;;;;;;9.50;38.40;;;7.86;40.93;100599.56;8241142;28;19929;-81
2022/04/04 08:33:57;;;;;;;;;;;9.50;37.90;;;7.71;40.82;100556.06;8253314;28;20009;-81
2022/04/04 08:38:22;;;;;;;;;;;9.70;37.80;;;7.89;41.22;100577.78;8256619;28;20004;-82
2022/04/04 08:42:45;;;;;;;;;;;9.80;38.10;;;7.89;40.93;100563.03;8253008;28;20446;-81
2022/04/04 08:47:08;;;;;;;;;;;9.90;37.80;;;7.57;40.89;100490.91;8252220;28;20012;-78
2022/04/04 08:51:31;;;;;;;;;;;9.90;37.90;;;8.12;41.18;100566.28;8265591;28;19922;-80
2022/04/04 08:55:53;;;;;;;;;;;9.90;37.50;;;8.17;41.09;100554.75;8264338;28;20000;-80
2022/04/04 09:00:15;;;;;;;;;;;10.00;37.60;;;8.20;41.30;100533.78;8261645;28;20004;-80
2022/04/04 09:04:36;;;;;;;;;;;10.00;38.00;;;8.27;40.88;100523.09;8262691;28;20004;-82
2022/04/04 09:08:58;;;;;;;;;;;10.10;37.50;;;8.30;40.74;100516.00;8269019;28;19918;-83
2022/04/04 09:13:20;;;;;;;;;;;10.20;37.70;;;8.34;40.58;100498.47;8258621;28;20016;-82
2022/04/04 09:17:45;;;;;;;;;;;10.10;37.50;;;8.36;40.88;100487.06;8240716;28;19918;-82
2022/04/04 09:22:12;;;;;;;;;;;10.30;37.50;;;8.46;40.80;100473.63;8241150;28;20676;-80
2022/04/04 09:26:34;;;;;;;;;;;10.30;37.40;;;8.61;40.92;100478.03;8247353;28;19922;-86
2022/04/04 09:31:10;;;;;;;;;;;10.40;37.30;;;8.73;40.79;100471.38;8261561;28;19932;-82
2022/04/04 09:35:43;;;;;;;;;;;10.50;37.50;;;8.76;40.90;100448.63;8249798;28;20010;-83
2022/04/04 09:40:05;;;;;;;;;;;10.50;37.30;;;8.87;40.64;100429.84;8254415;28;19932;-84
2022/04/04 09:44:26;;;;;;;;;;;10.60;37.20;;;8.88;40.80;100422.88;8220103;28;19926;-85
2022/04/04 09:49:20;;;;;;;;;;;10.50;37.10;;;8.93;40.54;100400.03;8258779;28;19921;-82
2022/04/04 09:53:41;;;;;;;;;;;10.80;37.10;;;9.11;40.63;100399.03;8200101;28;19946;-82
2022/04/04 09:58:08;;;;;;;;;;;10.70;37.00;;;9.02;40.58;100358.72;8226115;28;19928;-82
2022/04/04 10:02:30;;;;;;;;;;;10.90;37.00;;;9.23;40.64;100351.47;8242892;28;19925;-81
2022/04/04 10:06:52;;;;;;;;;;;11.00;37.10;;;9.36;40.62;100342.97;8250433;28;20306;-81
2022/04/04 10:11:13;;;;;;;;;;;11.10;36.90;;;9.43;40.40;100331.28;8255474;28;20301;-82
2022/04/04 10:15:36;;;;;;;;;;;11.20;36.70;;;9.62;40.33;100331.06;8239083;28;19929;-80
2022/04/04 10:19:58;;;;;;;;;;;11.30;36.80;;;9.64;40.75;100285.75;8236310;28;19933;-82
2022/04/04 10:24:20;;;;;;;;;;;11.50;36.90;;;9.74;40.67;100279.03;8241459;28;19928;-82
2022/04/04 10:28:46;;;;;;;;;;;11.60;36.70;;;10.08;40.53;100304.91;8227544;28;19922;-81
2022/04/04 10:33:22;;;;;;;;;;;11.70;36.60;;;10.23;40.27;100279.63;8222336;28;19929;-79
2022/04/04 10:37:45;;;;;;;;;;;11.90;36.50;;;10.37;40.12;100287.50;8214087;28;20464;-80
2022/04/04 10:42:32;;;;;;;;;;;12.00;36.30;;;10.42;40.45;100277.59;8247792;28;19928;-81
2022/04/04 10:47:01;;;;;;;;;;;12.10;36.20;;;10.39;40.35;100249.09;8226019;28;20275;-79
2022/04/04 10:51:28;;;;;;;;;;;12.10;35.90;;;10.52;40.27;100247.38;8244216;28;19926;-81
2022/04/04 10:55:52;;;;;;;;;;;12.30;35.70;;;10.54;39.89;100227.25;8227750;28;20403;-83
2022/04/04 11:00:16;;;;;;;;;;;12.30;35.40;;;10.52;40.29;100217.84;8217824;28;19922;-85
2022/04/04 11:07:38;;;;;;;;;;;12.30;35.40;;;10.62;40.21;100209.31;8218062;28;20009;-81
2022/04/04 11:09:22;;;;;;;;;;;12.30;35.10;;;10.55;39.91;100168.88;8232147;28;19921;-80
2022/04/04 11:13:50;;;;;;;;;;;12.30;35.30;;;10.64;40.57;100172.69;8248482;28;19921;-81
2022/04/04 11:18:13;;;;;;;;;;;12.40;35.40;;;10.57;40.07;100138.28;8219124;28;19932;-82
2022/04/04 11:22:37;;;;;;;;;;;12.40;35.30;;;10.68;40.26;100134.16;8229953;28;19973;-81
2022/04/04 11:26:58;;;;;;;;;;;12.50;35.00;;;10.65;40.01;100123.91;8239804;28;19928;-80
2022/04/04 11:31:21;;;;;;;;;;;12.50;35.40;;;10.74;39.25;100112.84;8264734;28;19925;-81
2022/04/04 11:35:44;;;;;;;;;;;12.50;35.20;;;10.82;39.86;100100.13;8265646;28;19922;-80
2022/04/04 11:40:08;;;;;;;;;;;12.60;35.00;;;10.82;39.67;100100.13;8244392;28;20028;-80
2022/04/04 11:44:34;;;;;;;;;;;12.60;35.00;;;10.54;39.66;100036.66;8250938;28;20306;-81
2022/04/04 11:48:57;;;;;;;;;;;12.50;34.10;;;10.68;39.73;100061.88;8241505;28;20401;-82
2022/04/04 11:53:22;;;;;;;;;;;12.50;34.50;;;10.68;39.52;100055.81;8239400;28;19937;-80
2022/04/04 11:57:49;;;;;;;;;;;12.50;34.10;;;10.65;39.03;100035.97;8215995;28;19926;-80
2022/04/04 12:02:13;;;;;;;;;;;12.50;34.30;;;10.81;39.42;100035.78;8255724;28;19925;-80
2022/04/04 12:06:34;;;;;;;;;;;12.50;34.50;;;10.62;39.24;100003.06;8220957;28;19947;-80
2022/04/04 12:10:56;;;;;;;;;;;12.50;34.10;;;10.81;39.43;100020.09;8244810;28;19930;-80
2022/04/04 12:15:29;;;;;;;;;;;12.50;33.80;;;10.63;39.47;99969.94;8212655;28;19922;-80
2022/04/04 12:19:52;;;;;;;;;;;12.60;34.40;;;10.90;39.03;100009.03;8213842;28;19926;-80
2022/04/04 12:28:54;;;;;;;;;;;12.60;34.40;;;10.81;38.82;99973.91;8217440;28;19925;-82
2022/04/04 12:33:16;;;;;;;;;;;12.60;33.10;;;10.77;39.13;99971.63;8268320;28;19932;-80
2022/04/04 12:37:42;;;;;;;;;;;12.60;33.10;;;10.81;38.80;99980.94;8242603;28;20292;-81
2022/04/04 12:42:07;;;;;;;;;;;12.50;33.30;;;10.65;39.06;99957.63;8241434;28;19922;-81
2022/04/04 12:46:33;;;;;;;;;;;12.50;33.60;;;10.67;38.60;99971.44;8222982;28;19922;-81
2022/04/04 12:50:55;;;;;;;;;;;12.50;33.90;;;10.62;39.33;99968.28;8233607;28;19926;-82
2022/04/04 12:55:17;;;;;;;;;;;12.40;34.30;;;10.48;39.09;99984.88;8243709;28;20012;-80
2022/04/04 12:59:49;;;;;;;;;;;12.50;34.50;;;10.44;39.37;99970.34;8228775;28;19933;-82
2022/04/04 13:04:21;;;;;;;;;;;12.20;34.10;;;10.18;39.17;99980.72;8232338;28;19922;-80
2022/04/04 13:09:00;;;;;;;;;;;12.10;34.50;;;10.10;39.15;99996.03;8236691;28;20570;-80
2022/04/04 13:13:22;;;;;;;;;;;12.00;35.00;;;9.85;39.34;99982.88;8218434;28;19926;-80
2022/04/04 13:17:44;;;;;;;;;;;11.70;35.70;;;9.64;39.44;99962.47;8251864;28;19922;-80
2022/04/04 13:22:06;;;;;;;;;;;11.60;36.40;;;9.39;39.22;99983.19;8210785;28;19922;-81
2022/04/04 13:26:28;;;;;;;;;;;11.40;36.70;;;9.15;39.31;99970.75;8222210;28;19928;-81
2022/04/04 13:30:50;;;;;;;;;;;11.00;37.60;;;8.81;39.92;99958.94;8244830;28;19944;-79
2022/04/04 13:35:12;;;;;;;;;;;10.90;37.70;;;8.72;39.85;99960.34;8225873;28;19932;-79
2022/04/04 13:39:33;;;;;;;;;;;10.70;38.30;;;8.52;39.82;99952.88;8236106;28;20302;-79
2022/04/04 13:43:56;;;;;;;;;;;10.50;38.20;;;8.20;40.29;99925.19;8227317;28;19940;-79
2022/04/04 13:48:18;;;;;;;;;;;10.20;41.60;;;8.12;40.36;99937.78;8254719;28;19917;-79
2022/04/04 13:52:40;;;;;;;;;;;10.00;40.10;;;7.97;40.88;99923.09;8239338;28;19926;-79
2022/04/04 13:57:02;;;;;;;;;;;9.70;41.10;;;7.82;40.70;99910.97;8236495;28;19928;-78
2022/04/04 14:01:26;;;;;;;;;;;9.60;41.40;;;7.70;40.73;99896.91;8235307;28;19941;-79
2022/04/04 14:05:50;;;;;;;;;;;9.50;41.10;;;7.47;40.76;99862.66;8235748;28;20375;-79
2022/04/04 14:10:12;;;;;;;;;;;9.30;43.00;;;7.37;41.06;99864.13;8242967;28;19929;-80
2022/04/04 14:14:33;;;;;;;;;;;9.20;41.30;;;7.26;40.88;99861.25;8229926;28;19929;-79
2022/04/04 14:18:56;;;;;;;;;;;9.00;41.90;;;7.11;40.92;99846.53;8259396;28;19928;-77
2022/04/04 14:23:18;;;;;;;;;;;8.90;43.00;;;7.06;41.71;99839.81;8244469;28;19928;-78
2022/04/04 14:27:40;;;;;;;;;;;8.80;43.00;;;6.78;41.59;99799.00;8242669;28;19927;-78
2022/04/04 14:32:01;;;;;;;;;;;8.70;41.50;;;6.80;41.98;99811.88;8234991;28;19930;-77
2022/04/04 14:36:23;;;;;;;;;;;8.60;43.10;;;6.76;41.14;99792.22;8229317;28;19922;-77
2022/04/04 14:40:44;;;;;;;;;;;8.60;41.10;;;6.70;41.73;99793.38;8237633;28;19936;-77
2022/04/04 14:45:07;;;;;;;;;;;8.50;41.10;;;6.70;41.57;99782.13;8214579;28;19925;-77
2022/04/04 14:49:29;;;;;;;;;;;8.50;44.80;;;6.64;42.20;99771.22;8221861;28;19928;-76
2022/04/04 14:53:51;;;;;;;;;;;8.30;44.60;;;6.46;42.40;99743.66;8245430;28;19926;-76
2022/04/04 14:58:13;;;;;;;;;;;8.30;46.00;;;6.55;42.33;99753.53;8226497;28;19921;-76
2022/04/04 15:02:38;;;;;;;;;;;8.30;46.00;;;6.50;42.60;99745.16;8239795;28;19924;-76
2022/04/04 15:07:00;;;;;;;;;;;8.30;45.10;;;6.40;42.10;99724.09;8235771;28;20286;-76
2022/04/04 15:11:22;;;;;;;;;;;8.20;43.00;;;5.66;42.09;99594.16;8241424;28;19936;-76
2022/04/04 15:15:43;;;;;;;;;;;8.10;43.20;;;6.43;42.24;99710.13;8232138;28;19926;-76
2022/04/04 15:20:05;;;;;;;;;;;8.00;44.50;;;6.28;42.60;99695.38;8236334;28;19922;-76
2022/04/04 15:24:27;;;;;;;;;;;8.10;45.90;;;6.20;43.05;99664.69;8236862;28;20314;-76
2022/04/04 15:28:48;;;;;;;;;;;8.10;45.40;;;6.21;42.84;99679.31;8248782;28;19922;-76
2022/04/04 15:33:10;;;;;;;;;;;8.00;45.10;;;6.21;43.02;99684.50;8236220;28;19932;-77
2022/04/04 15:37:32;;;;;;;;;;;8.00;44.80;;;6.20;43.32;99670.72;8240925;28;19922;-76
2022/04/04 15:41:56;;;;;;;;;;;8.00;45.90;;;6.15;42.75;99664.09;8252283;28;19922;-77
2022/04/04 15:46:17;;;;;;;;;;;7.90;44.30;;;6.14;43.30;99673.63;8237506;28;20165;-76
2022/04/04 15:50:39;;;;;;;;;;;7.90;47.00;;;6.00;43.13;99631.25;8244563;28;20299;-77
2022/04/04 15:55:00;;;;;;;;;;;7.90;44.80;;;6.10;43.40;99661.78;8246960;28;19922;-78
2022/04/04 15:59:22;;;;;;;;;;;7.80;44.70;;;5.91;43.33;99632.53;8237818;28;19930;-76
2022/04/04 16:03:45;;;;;;;;;;;8.10;44.10;;;6.09;42.89;99648.88;8241570;28;19970;-76
2022/04/04 16:08:06;;;;;;;;;;;7.80;45.30;;;5.96;43.14;99618.44;8237940;28;19922;-76
2022/04/04 16:12:30;;;;;;;;;;;7.80;44.10;;;5.81;43.36;99595.94;8230910;28;19956;-76
2022/04/04 16:16:53;;;;;;;;;;;7.80;44.90;;;5.82;43.45;99591.59;8241699;28;19926;-76
2022/04/04 16:21:17;;;;;;;;;;;7.70;44.10;;;5.92;42.90;99616.91;8236668;28;20272;-76
2022/04/04 16:25:39;;;;;;;;;;;7.60;44.10;;;6.00;43.08;99613.13;8229135;28;19954;-77
2022/04/04 16:30:01;;;;;;;;;;;7.70;44.00;;;5.89;43.26;99601.53;8236414;28;20306;-76
2022/04/04 16:34:22;;;;;;;;;;;7.70;46.00;;;5.92;43.37;99601.38;8235006;28;20695;-76
2022/04/04 16:38:46;;;;;;;;;;;7.70;46.20;;;5.73;43.34;99570.44;8246512;28;19922;-77
2022/04/04 16:43:09;;;;;;;;;;;7.60;44.70;;;5.92;43.50;99614.34;8236595;28;19948;-77
2022/04/04 16:47:32;;;;;;;;;;;7.60;44.70;;;5.91;43.14;99589.34;8239346;28;20310;-77
2022/04/04 16:51:54;;;;;;;;;;;7.70;45.60;;;5.90;43.26;99579.06;8237411;28;19926;-77
2022/04/04 16:56:18;;;;;;;;;;;7.80;44.50;;;5.80;43.85;99555.41;8235149;28;19922;-77
2022/04/04 17:00:40;;;;;;;;;;;7.70;45.10;;;5.91;43.74;99550.50;8240702;28;19932;-77
2022/04/04 17:05:03;;;;;;;;;;;7.70;45.40;;;5.85;43.32;99548.22;8245117;28;19921;-77
2022/04/04 17:09:25;;;;;;;;;;;7.70;44.70;;;6.02;43.37;99557.66;8231367;28;19922;-77
2022/04/04 17:13:46;;;;;;;;;;;7.80;44.50;;;5.89;43.87;99535.94;8243219;28;19925;-77
2022/04/04 17:18:08;;;;;;;;;;;7.70;44.00;;;5.89;43.77;99523.81;8224325;28;19921;-77
2022/04/04 17:22:30;;;;;;;;;;;7.80;45.40;;;6.02;43.43;99543.88;8232595;28;19922;-77
2022/04/04 17:26:52;;;;;;;;;;;7.70;44.70;;;6.02;43.43;99536.94;8234916;28;19925;-77
2022/04/04 17:31:13;;;;;;;;;;;8.00;46.00;;;5.92;43.40;99507.28;8231129;28;19937;-77
2022/04/04 17:35:36;;;;;;;;;;;7.80;46.20;;;5.90;43.53;99507.34;8241173;28;19926;-77
2022/04/04 17:40:01;;;;;;;;;;;7.80;44.10;;;6.00;43.93;99541.41;8226858;28;19930;-77
2022/04/04 17:44:25;;;;;;;;;;;7.70;44.60;;;6.05;43.65;99530.75;8243462;28;19932;-77
2022/04/04 17:48:47;;;;;;;;;;;7.80;43.40;;;5.98;44.12;99514.72;8258282;28;19922;-77
2022/04/04 17:53:08;;;;;;;;;;;7.80;43.10;;;6.05;44.10;99515.22;8249020;28;19956;-77
2022/04/04 17:57:30;;;;;;;;;;;7.90;43.90;;;6.02;43.79;99503.25;8243123;28;20306;-77
2022/04/04 18:01:54;;;;;;;;;;;7.80;43.70;;;5.97;44.04;99485.41;8255387;28;20326;-77
2022/04/04 18:06:16;;;;;;;;;;;7.70;45.80;;;6.01;43.77;99496.41;8243446;28;19949;-77
2022/04/04 18:10:38;;;;;;;;;;;7.80;43.90;;;6.00;43.73;99489.56;8244858;28;19928;-76
2022/04/04 18:14:59;;;;;;;;;;;7.90;44.10;;;6.13;44.27;99506.09;8234909;28;19928;-76
2022/04/04 18:19:22;;;;;;;;;;;7.90;43.90;;;6.00;44.33;99468.00;8247017;28;20276;-76
2022/04/04 18:23:44;;;;;;;;;;;7.90;45.30;;;6.11;44.00;99482.03;8242162;28;19956;-77
2022/04/04 18:28:06;;;;;;;;;;;8.00;43.50;;;6.20;44.37;99471.13;8241851;28;19922;-83
2022/04/04 18:32:27;;;;;;;;;;;8.00;45.50;;;6.18;44.50;99466.94;8241027;28;19930;-81
2022/04/04 18:36:49;;;;;;;;;;;8.00;45.30;;;6.09;44.12;99455.34;8239978;28;19928;-82
2022/04/04 18:41:11;;;;;;;;;;;7.90;44.90;;;5.99;44.61;99420.50;8230235;28;19922;-82
2022/04/04 18:45:36;;;;;;;;;;;7.90;46.50;;;6.11;44.34;99435.38;8253036;28;19926;-82
2022/04/04 18:49:57;;;;;;;;;;;8.00;45.20;;;6.31;44.19;99451.53;8247873;28;19922;-81
2022/04/04 18:54:25;;;;;;;;;;;8.10;45.10;;;6.16;44.14;99406.59;8241321;28;19932;-82
2022/04/04 18:58:48;;;;;;;;;;;8.10;45.30;;;6.38;44.57;99450.25;8223447;28;19928;-82
2022/04/04 19:03:10;;;;;;;;;;;8.10;45.30;;;6.37;44.42;99423.50;8240364;28;19922;-82
2022/04/04 19:07:33;;;;;;;;;;;8.10;45.20;;;6.32;44.48;99416.88;8238943;28;19929;-82
2022/04/04 19:11:56;;;;;;;;;;;8.10;45.50;;;6.42;44.41;99428.38;8262353;28;19948;-81
2022/04/04 19:16:18;;;;;;;;;;;8.20;45.40;;;6.46;44.24;99414.34;8224522;28;19934;-81
2022/04/04 19:20:42;;;;;;;;;;;8.20;46.10;;;6.46;44.73;99414.34;8227866;28;19928;-81
2022/04/04 19:25:04;;;;;;;;;;;8.20;45.20;;;6.50;44.52;99408.03;8254327;28;19926;-80
2022/04/04 19:29:26;;;;;;;;;;;8.30;44.30;;;6.52;44.82;99413.97;8254064;28;19928;-81
2022/04/04 19:33:47;;;;;;;;;;;8.30;45.40;;;6.54;44.43;99403.50;8248075;28;19936;-81
2022/04/04 19:38:10;;;;;;;;;;;8.50;44.20;;;6.57;44.60;99409.34;8253895;28;19951;-81
2022/04/04 19:42:32;;;;;;;;;;;8.40;44.70;;;6.21;44.48;99337.16;8231650;28;20405;-83
2022/04/04 19:46:54;;;;;;;;;;;8.40;43.90;;;6.65;44.64;99401.94;8243136;28;20310;-83
2022/04/04 19:51:15;;;;;;;;;;;8.40;45.10;;;6.59;44.61;99385.91;8246225;28;20713;-82
2022/04/04 19:55:37;;;;;;;;;;;8.40;43.70;;;6.59;45.00;99378.13;8258528;28;20276;-83
2022/04/04 19:59:59;;;;;;;;;;;8.50;46.00;;;6.43;44.97;99352.28;8244508;28;19929;-83
2022/04/04 20:04:20;;;;;;;;;;;8.20;45.60;;;6.64;45.19;99394.22;8246786;28;19953;-83
2022/04/04 20:08:43;;;;;;;;;;;8.40;48.50;;;6.69;44.87;99397.38;8223829;28;19928;-83
2022/04/04 20:13:08;;;;;;;;;;;8.50;45.20;;;6.59;44.74;99376.38;8231953;28;19925;-83
2022/04/04 20:17:30;;;;;;;;;;;8.40;44.70;;;6.81;44.88;99408.78;8250362;28;19921;-80
2022/04/04 20:21:52;;;;;;;;;;;8.60;45.20;;;6.84;44.97;99403.41;8264001;28;19930;-83
2022/04/04 20:26:14;;;;;;;;;;;8.60;45.00;;;6.79;45.43;99385.53;8223713;28;19921;-80
2022/04/04 20:30:36;;;;;;;;;;;8.60;45.90;;;6.74;44.73;99365.97;8245966;28;20052;-81